Карточка аэропорта UNKL

Внимание!
Информация на этой странице в стадии наполнения.
Если вы не увидели какой-то информации, или заметили неточность - пожалуйста сообщите нам!
Спасибо!
Команда RU-STAFF
Название аэропортаЕмельяново
Название аэропорта (англ.)Yemelyanovo
Превышение942 ft. (287.1 m.)
Координаты56°10.386', 92°29.598'
Высота перехода7500ft
Эшелон переходаFL090
Коды ответчика5320-5377
Зона ОрВДКрасноярск РПИ (UNKL)
Данные METARUNKL 041000Z 24005MPS 9999 BKN042 M04/M13 Q1017 R29/CLRD65 NOSIG RMK QFE737
Проноз погоды (TAF)UNKL 040742Z 0409/0509 22007G15MPS 9999 SCT016CB BECMG 0412/0414 22002G07MPS TEMPO 0414/0503 2500 -SHSN BECMG 0503/0505 25007G12MPS
NOTAMshow/hide NOTAM
AWOS   TABLE

Информация о ВПП

ВПП Длина ВПП (м.) Покрытие Курс ВПП Частота ILS
113700Асфальтобетон109110.5
293700Асфальтобетон289111.7

Диспетчерские позиции

Позывной Наименование органа УВД Частота
UNKL_TWRКрасноярск-Вышка118.3
UNKL_R_APPКрасноярск-Круг122.0
UNKL_GNDКрасноярск-Руление121.9
UNKL_APPКрасноярск-Подход127.7



Спутниковое изображение